Time;durP1;ratioP1;P1;durP2;ratioP2;P2;SDS_P1;SDS_P2;PMS_P1;PMS_P2;Temp;Humidity;BMP_temperature;BMP_pressure;BME280_temperature;BME280_humidity;BME280_pressure;Samples;Min_cycle;Max_cycle;Signal;HPM_P1;HPM_P2
2021/05/25 00:00:16;;;;;;;0.95;0.77;;;10.9;99.9;;;;;;;;;
2021/05/25 00:01:02;;;;;;;0.95;0.77;;;10.9;99.9;;;;;;;;;
2021/05/25 00:02:02;;;;;;;2.38;0.9;;;10.8;99.9;;;;;;;;;
2021/05/25 00:02:30;;;;;;;1.17;0.88;;;10.7;99.9;;;;;;;;;
2021/05/25 00:03:06;;;;;;;1.17;0.88;;;10.7;99.9;;;;;;;;;
2021/05/25 00:03:16;;;;;;;1.55;0.88;;;10.7;99.9;;;;;;;;;
2021/05/25 00:04:02;;;;;;;1.55;0.88;;;10.7;99.9;;;;;;;;;
2021/05/25 00:04:17;;;;;;;2.33;0.8;;;10.8;99.9;;;;;;;;;
2021/05/25 00:04:43;;;;;;;2.33;0.8;;;10.8;99.9;;;;;;;;;
2021/05/25 00:05:02;;;;;;;2.33;0.8;;;10.8;99.9;;;;;;;;;
2021/05/25 00:05:19;;;;;;;1.7;0.93;;;10.8;99.9;;;;;;;;;
2021/05/25 00:05:29;;;;;;;1.7;0.93;;;10.8;99.9;;;;;;;;;
2021/05/25 00:06:02;;;;;;;1.7;0.93;;;10.8;99.9;;;;;;;;;
2021/05/25 00:06:15;;;;;;;1.63;0.73;;;10.9;99.9;;;;;;;;;
2021/05/25 00:06:30;;;;;;;1.63;0.73;;;10.9;99.9;;;;;;;;;
2021/05/25 00:06:56;;;;;;;1.63;0.73;;;10.9;99.9;;;;;;;;;
2021/05/25 00:07:02;;;;;;;1.63;0.73;;;10.9;99.9;;;;;;;;;
2021/05/25 00:07:16;;;;;;;1.05;1.05;;;10.8;99.9;;;;;;;;;
2021/05/25 00:07:32;;;;;;;1.05;1.05;;;10.8;99.9;;;;;;;;;
2021/05/25 00:07:42;;;;;;;1.05;1.05;;;10.8;99.9;;;;;;;;;
2021/05/25 00:08:02;;;;;;;1.05;1.05;;;10.8;99.9;;;;;;;;;
2021/05/25 00:08:13;;;;;;;0.7;0.7;;;10.8;99.9;;;;;;;;;
2021/05/25 00:08:28;;;;;;;0.7;0.7;;;10.8;99.9;;;;;;;;;
2021/05/25 00:08:43;;;;;;;0.7;0.7;;;10.8;99.9;;;;;;;;;
2021/05/25 00:09:02;;;;;;;0.7;0.7;;;10.8;99.9;;;;;;;;;
2021/05/25 00:09:09;;;;;;;0.7;0.7;;;10.8;99.9;;;;;;;;;
2021/05/25 00:09:14;;;;;;;1.52;1;;;10.7;99.9;;;;;;;;;
2021/05/25 00:09:29;;;;;;;1.52;1;;;10.7;99.9;;;;;;;;;
2021/05/25 00:09:45;;;;;;;1.52;1;;;10.7;99.9;;;;;;;;;
2021/05/25 00:09:55;;;;;;;1.52;1;;;10.7;99.9;;;;;;;;;
2021/05/25 00:10:02;;;;;;;1.52;1;;;10.7;99.9;;;;;;;;;
2021/05/25 00:10:16;;;;;;;1.6;0.7;;;10.7;99.9;;;;;;;;;
2021/05/25 00:10:26;;;;;;;1.6;0.7;;;10.7;99.9;;;;;;;;;
2021/05/25 00:10:41;;;;;;;1.6;0.7;;;10.7;99.9;;;;;;;;;
2021/05/25 00:10:56;;;;;;;1.6;0.7;;;10.7;99.9;;;;;;;;;
2021/05/25 00:11:02;;;;;;;1.6;0.7;;;10.7;99.9;;;;;;;;;
2021/05/25 00:11:17;;;;;;;1.35;0.68;;;10.7;99.9;;;;;;;;;
2021/05/25 00:11:27;;;;;;;1.35;0.68;;;10.7;99.9;;;;;;;;;
2021/05/25 00:11:43;;;;;;;1.35;0.68;;;10.7;99.9;;;;;;;;;
2021/05/25 00:11:58;;;;;;;1.35;0.68;;;10.7;99.9;;;;;;;;;
2021/05/25 00:12:02;;;;;;;1.35;0.68;;;10.7;99.9;;;;;;;;;
2021/05/25 00:12:08;;;;;;;1.35;0.68;;;10.7;99.9;;;;;;;;;
2021/05/25 00:12:14;;;;;;;1.17;0.7;;;10.8;99.9;;;;;;;;;
2021/05/25 00:12:29;;;;;;;1.17;0.7;;;10.8;99.9;;;;;;;;;
2021/05/25 00:12:39;;;;;;;1.17;0.7;;;10.8;99.9;;;;;;;;;
2021/05/25 00:12:54;;;;;;;1.17;0.7;;;10.8;99.9;;;;;;;;;
2021/05/25 00:13:02;;;;;;;1.17;0.7;;;10.8;99.9;;;;;;;;;
2021/05/25 00:13:10;;;;;;;1.17;0.7;;;10.8;99.9;;;;;;;;;
2021/05/25 00:13:15;;;;;;;1.52;0.9;;;10.8;99.9;;;;;;;;;
2021/05/25 00:13:30;;;;;;;1.52;0.9;;;10.8;99.9;;;;;;;;;
2021/05/25 00:13:40;;;;;;;1.52;0.9;;;10.8;99.9;;;;;;;;;
2021/05/25 00:13:56;;;;;;;1.52;0.9;;;10.8;99.9;;;;;;;;;
2021/05/25 00:14:03;;;;;;;1.52;0.9;;;10.8;99.9;;;;;;;;;
2021/05/25 00:14:11;;;;;;;1.52;0.9;;;10.8;99.9;;;;;;;;;
2021/05/25 00:14:19;;;;;;;1.45;0.6;;;10.8;99.9;;;;;;;;;
2021/05/25 00:14:28;;;;;;;1.45;0.6;;;10.8;99.9;;;;;;;;;
2021/05/25 00:14:42;;;;;;;1.45;0.6;;;10.8;99.9;;;;;;;;;
2021/05/25 00:14:52;;;;;;;1.45;0.6;;;10.8;99.9;;;;;;;;;
2021/05/25 00:15:02;;;;;;;1.45;0.6;;;10.8;99.9;;;;;;;;;
2021/05/25 00:15:07;;;;;;;1.45;0.6;;;10.8;99.9;;;;;;;;;
2021/05/25 00:15:12;;;;;;;1.45;0.6;;;10.8;99.9;;;;;;;;;
2021/05/25 00:15:28;;;;;;;0.85;0.73;;;10.7;99.9;;;;;;;;;
2021/05/25 00:15:43;;;;;;;0.85;0.73;;;10.7;99.9;;;;;;;;;
2021/05/25 00:15:53;;;;;;;0.85;0.73;;;10.7;99.9;;;;;;;;;
2021/05/25 00:16:01;;;;;;;0.85;0.73;;;10.7;99.9;;;;;;;;;
2021/05/25 00:16:09;;;;;;;0.85;0.73;;;10.7;99.9;;;;;;;;;
2021/05/25 00:16:14;;;;;;;1.58;0.7;;;10.7;99.9;;;;;;;;;
2021/05/25 00:16:29;;;;;;;1.58;0.7;;;10.7;99.9;;;;;;;;;
2021/05/25 00:16:39;;;;;;;1.58;0.7;;;10.7;99.9;;;;;;;;;
2021/05/25 00:16:55;;;;;;;1.58;0.7;;;10.7;99.9;;;;;;;;;
2021/05/25 00:17:02;;;;;;;1.58;0.7;;;10.7;99.9;;;;;;;;;
2021/05/25 00:17:05;;;;;;;1.58;0.7;;;10.7;99.9;;;;;;;;;
2021/05/25 00:17:15;;;;;;;2.13;0.9;;;10.6;99.9;;;;;;;;;
2021/05/25 00:17:26;;;;;;;2.13;0.9;;;10.6;99.9;;;;;;;;;
2021/05/25 00:17:41;;;;;;;2.13;0.9;;;10.6;99.9;;;;;;;;;
2021/05/25 00:17:56;;;;;;;2.13;0.9;;;10.6;99.9;;;;;;;;;
2021/05/25 00:18:02;;;;;;;2.13;0.9;;;10.6;99.9;;;;;;;;;
2021/05/25 00:18:07;;;;;;;2.13;0.9;;;10.6;99.9;;;;;;;;;
2021/05/25 00:18:12;;;;;;;2.13;0.9;;;10.6;99.9;;;;;;;;;
2021/05/25 00:18:27;;;;;;;2.03;0.9;;;10.6;99.9;;;;;;;;;
2021/05/25 00:18:42;;;;;;;2.03;0.9;;;10.6;99.9;;;;;;;;;
2021/05/25 00:18:53;;;;;;;2.03;0.9;;;10.6;99.9;;;;;;;;;
2021/05/25 00:19:01;;;;;;;2.03;0.9;;;10.6;99.9;;;;;;;;;
2021/05/25 00:19:08;;;;;;;2.03;0.9;;;10.6;99.9;;;;;;;;;
2021/05/25 00:19:13;;;;;;;2.03;0.9;;;10.6;99.9;;;;;;;;;
2021/05/25 00:19:28;;;;;;;1.33;0.8;;;10.5;99.9;;;;;;;;;
2021/05/25 00:19:39;;;;;;;1.33;0.8;;;10.5;99.9;;;;;;;;;
2021/05/25 00:19:54;;;;;;;1.33;0.8;;;10.5;99.9;;;;;;;;;
2021/05/25 00:20:02;;;;;;;1.33;0.8;;;10.5;99.9;;;;;;;;;
2021/05/25 00:20:09;;;;;;;1.33;0.8;;;10.5;99.9;;;;;;;;;
2021/05/25 00:20:14;;;;;;;1.35;0.63;;;10.5;99.9;;;;;;;;;
2021/05/25 00:20:25;;;;;;;1.35;0.63;;;10.5;99.9;;;;;;;;;
2021/05/25 00:20:40;;;;;;;1.35;0.63;;;10.5;99.9;;;;;;;;;
2021/05/25 00:20:56;;;;;;;1.35;0.63;;;10.5;99.9;;;;;;;;;
2021/05/25 00:21:01;;;;;;;1.35;0.63;;;10.5;99.9;;;;;;;;;
2021/05/25 00:21:06;;;;;;;1.35;0.63;;;10.5;99.9;;;;;;;;;
2021/05/25 00:21:16;;;;;;;0.8;0.8;;;10.5;99.9;;;;;;;;;
2021/05/25 00:21:26;;;;;;;0.8;0.8;;;10.5;99.9;;;;;;;;;
2021/05/25 00:21:42;;;;;;;0.8;0.8;;;10.5;99.9;;;;;;;;;
2021/05/25 00:21:52;;;;;;;0.8;0.8;;;10.5;99.9;;;;;;;;;
2021/05/25 00:22:02;;;;;;;0.8;0.8;;;10.5;99.9;;;;;;;;;
2021/05/25 00:22:07;;;;;;;0.8;0.8;;;10.5;99.9;;;;;;;;;
2021/05/25 00:22:17;;;;;;;1.13;0.55;;;10.6;99.9;;;;;;;;;
2021/05/25 00:22:28;;;;;;;1.13;0.55;;;10.6;99.9;;;;;;;;;
2021/05/25 00:22:38;;;;;;;1.13;0.55;;;10.6;99.9;;;;;;;;;
2021/05/25 00:22:53;;;;;;;1.13;0.55;;;10.6;99.9;;;;;;;;;
2021/05/25 00:23:02;;;;;;;1.13;0.55;;;10.6;99.9;;;;;;;;;
2021/05/25 00:23:09;;;;;;;1.13;0.55;;;10.6;99.9;;;;;;;;;
2021/05/25 00:23:14;;;;;;;1.13;0.55;;;10.6;99.9;;;;;;;;;
2021/05/25 00:23:29;;;;;;;1.2;0.7;;;10.5;99.9;;;;;;;;;
2021/05/25 00:23:39;;;;;;;1.2;0.7;;;10.5;99.9;;;;;;;;;
2021/05/25 00:23:55;;;;;;;1.2;0.7;;;10.5;99.9;;;;;;;;;
2021/05/25 00:24:01;;;;;;;1.2;0.7;;;10.5;99.9;;;;;;;;;
2021/05/25 00:24:05;;;;;;;1.2;0.7;;;10.5;99.9;;;;;;;;;
2021/05/25 00:24:15;;;;;;;2.05;0.8;;;10.5;99.9;;;;;;;;;
2021/05/25 00:24:31;;;;;;;2.05;0.8;;;10.5;99.9;;;;;;;;;
2021/05/25 00:24:41;;;;;;;2.05;0.8;;;10.5;99.9;;;;;;;;;
2021/05/25 00:24:51;;;;;;;2.05;0.8;;;10.5;99.9;;;;;;;;;
2021/05/25 00:25:02;;;;;;;2.05;0.8;;;10.5;99.9;;;;;;;;;
2021/05/25 00:25:06;;;;;;;2.05;0.8;;;10.5;99.9;;;;;;;;;
2021/05/25 00:25:17;;;;;;;1.83;0.8;;;10.5;99.9;;;;;;;;;
2021/05/25 00:25:27;;;;;;;1.83;0.8;;;10.5;99.9;;;;;;;;;
2021/05/25 00:25:42;;;;;;;1.83;0.8;;;10.5;99.9;;;;;;;;;
2021/05/25 00:25:52;;;;;;;1.83;0.8;;;10.5;99.9;;;;;;;;;
2021/05/25 00:26:01;;;;;;;1.83;0.8;;;10.5;99.9;;;;;;;;;
2021/05/25 00:26:08;;;;;;;1.83;0.8;;;10.5;99.9;;;;;;;;;
2021/05/25 00:26:13;;;;;;;1.83;0.8;;;10.5;99.9;;;;;;;;;
2021/05/25 00:26:28;;;;;;;1.58;0.77;;;10.5;99.9;;;;;;;;;
2021/05/25 00:26:44;;;;;;;1.58;0.77;;;10.5;99.9;;;;;;;;;
2021/05/25 00:26:54;;;;;;;1.58;0.77;;;10.5;99.9;;;;;;;;;
2021/05/25 00:27:02;;;;;;;1.58;0.77;;;10.5;99.9;;;;;;;;;
2021/05/25 00:27:04;;;;;;;1.58;0.77;;;10.5;99.9;;;;;;;;;
2021/05/25 00:27:14;;;;;;;1.58;0.77;;;10.5;99.9;;;;;;;;;
2021/05/25 00:27:30;;;;;;;1.35;0.65;;;10.5;99.9;;;;;;;;;
2021/05/25 00:27:40;;;;;;;1.35;0.65;;;10.5;99.9;;;;;;;;;
2021/05/25 00:27:55;;;;;;;1.35;0.65;;;10.5;99.9;;;;;;;;;
2021/05/25 00:28:02;;;;;;;1.35;0.65;;;10.5;99.9;;;;;;;;;
2021/05/25 00:28:06;;;;;;;1.35;0.65;;;10.5;99.9;;;;;;;;;
2021/05/25 00:28:16;;;;;;;1.35;0.65;;;10.5;99.9;;;;;;;;;
2021/05/25 00:28:26;;;;;;;1.85;0.7;;;10.6;99.9;;;;;;;;;
2021/05/25 00:28:42;;;;;;;1.85;0.7;;;10.6;99.9;;;;;;;;;
2021/05/25 00:28:57;;;;;;;1.85;0.7;;;10.6;99.9;;;;;;;;;
2021/05/25 00:29:01;;;;;;;1.85;0.7;;;10.6;99.9;;;;;;;;;
2021/05/25 00:29:07;;;;;;;1.85;0.7;;;10.6;99.9;;;;;;;;;
2021/05/25 00:29:12;;;;;;;1.85;0.7;;;10.6;99.9;;;;;;;;;
2021/05/25 00:29:28;;;;;;;3.67;0.7;;;10.7;99.9;;;;;;;;;
2021/05/25 00:29:43;;;;;;;3.67;0.7;;;10.7;99.9;;;;;;;;;
2021/05/25 00:29:53;;;;;;;3.67;0.7;;;10.7;99.9;;;;;;;;;
2021/05/25 00:30:02;;;;;;;3.67;0.7;;;10.7;99.9;;;;;;;;;
2021/05/25 00:30:08;;;;;;;3.67;0.7;;;10.7;99.9;;;;;;;;;
2021/05/25 00:30:14;;;;;;;3.67;0.7;;;10.7;99.9;;;;;;;;;
2021/05/25 00:30:29;;;;;;;2.72;1;;;10.7;99.9;;;;;;;;;
2021/05/25 00:30:39;;;;;;;2.72;1;;;10.7;99.9;;;;;;;;;
2021/05/25 00:30:55;;;;;;;2.72;1;;;10.7;99.9;;;;;;;;;
2021/05/25 00:31:01;;;;;;;2.72;1;;;10.7;99.9;;;;;;;;;
2021/05/25 00:31:10;;;;;;;2.72;1;;;10.7;99.9;;;;;;;;;
2021/05/25 00:31:15;;;;;;;2.72;1;;;10.7;99.9;;;;;;;;;
2021/05/25 00:31:25;;;;;;;2.2;0.7;;;10.7;99.9;;;;;;;;;
2021/05/25 00:31:41;;;;;;;2.2;0.7;;;10.7;99.9;;;;;;;;;
2021/05/25 00:31:56;;;;;;;2.2;0.7;;;10.7;99.9;;;;;;;;;
2021/05/25 00:32:02;;;;;;;2.2;0.7;;;10.7;99.9;;;;;;;;;
2021/05/25 00:32:06;;;;;;;2.2;0.7;;;10.7;99.9;;;;;;;;;
2021/05/25 00:32:18;;;;;;;2.2;0.7;;;10.7;99.9;;;;;;;;;
2021/05/25 00:32:27;;;;;;;0.9;0.45;;;10.7;99.9;;;;;;;;;
2021/05/25 00:32:42;;;;;;;0.9;0.45;;;10.7;99.9;;;;;;;;;
2021/05/25 00:32:52;;;;;;;0.9;0.45;;;10.7;99.9;;;;;;;;;
2021/05/25 00:33:02;;;;;;;0.9;0.45;;;10.7;99.9;;;;;;;;;
2021/05/25 00:33:08;;;;;;;0.9;0.45;;;10.7;99.9;;;;;;;;;
2021/05/25 00:33:13;;;;;;;0.9;0.45;;;10.7;99.9;;;;;;;;;
2021/05/25 00:33:28;;;;;;;1.1;0.55;;;10.6;99.9;;;;;;;;;
2021/05/25 00:33:38;;;;;;;1.1;0.55;;;10.6;99.9;;;;;;;;;
2021/05/25 00:33:54;;;;;;;1.1;0.55;;;10.6;99.9;;;;;;;;;
2021/05/25 00:34:02;;;;;;;1.1;0.55;;;10.6;99.9;;;;;;;;;
2021/05/25 00:34:09;;;;;;;1.1;0.55;;;10.6;99.9;;;;;;;;;
2021/05/25 00:34:14;;;;;;;1.1;0.55;;;10.6;99.9;;;;;;;;;
2021/05/25 00:34:30;;;;;;;1.73;0.6;;;10.5;99.9;;;;;;;;;
2021/05/25 00:34:40;;;;;;;1.73;0.6;;;10.5;99.9;;;;;;;;;
2021/05/25 00:34:55;;;;;;;1.73;0.6;;;10.5;99.9;;;;;;;;;
2021/05/25 00:35:02;;;;;;;1.73;0.6;;;10.5;99.9;;;;;;;;;
2021/05/25 00:35:05;;;;;;;1.73;0.6;;;10.5;99.9;;;;;;;;;
2021/05/25 00:35:16;;;;;;;1.73;0.6;;;10.5;99.9;;;;;;;;;
2021/05/25 00:35:28;;;;;;;1.23;0.4;;;10.6;99.9;;;;;;;;;
2021/05/25 00:35:41;;;;;;;1.23;0.4;;;10.6;99.9;;;;;;;;;
2021/05/25 00:35:53;;;;;;;1.23;0.4;;;10.6;99.9;;;;;;;;;
2021/05/25 00:36:01;;;;;;;1.23;0.4;;;10.6;99.9;;;;;;;;;
2021/05/25 00:36:09;;;;;;;1.23;0.4;;;10.6;99.9;;;;;;;;;
2021/05/25 00:36:12;;;;;;;1.23;0.4;;;10.6;99.9;;;;;;;;;
2021/05/25 00:36:27;;;;;;;0.52;0.5;;;10.6;99.9;;;;;;;;;
2021/05/25 00:36:43;;;;;;;0.52;0.5;;;10.6;99.9;;;;;;;;;
2021/05/25 00:36:53;;;;;;;0.52;0.5;;;10.6;99.9;;;;;;;;;
2021/05/25 00:37:02;;;;;;;0.52;0.5;;;10.6;99.9;;;;;;;;;
2021/05/25 00:37:09;;;;;;;0.52;0.5;;;10.6;99.9;;;;;;;;;
2021/05/25 00:37:13;;;;;;;0.52;0.5;;;10.6;99.9;;;;;;;;;
2021/05/25 00:37:29;;;;;;;0.93;0.52;;;10.6;99.9;;;;;;;;;
2021/05/25 00:37:39;;;;;;;0.93;0.52;;;10.6;99.9;;;;;;;;;
2021/05/25 00:37:54;;;;;;;0.93;0.52;;;10.6;99.9;;;;;;;;;
2021/05/25 00:38:02;;;;;;;0.93;0.52;;;10.6;99.9;;;;;;;;;
2021/05/25 00:38:05;;;;;;;0.93;0.52;;;10.6;99.9;;;;;;;;;
2021/05/25 00:38:15;;;;;;;0.93;0.52;;;10.6;99.9;;;;;;;;;
2021/05/25 00:38:25;;;;;;;1.95;0.55;;;10.5;99.9;;;;;;;;;
2021/05/25 00:38:40;;;;;;;1.95;0.55;;;10.5;99.9;;;;;;;;;
2021/05/25 00:38:56;;;;;;;1.95;0.55;;;10.5;99.9;;;;;;;;;
2021/05/25 00:39:02;;;;;;;1.95;0.55;;;10.5;99.9;;;;;;;;;
2021/05/25 00:39:06;;;;;;;1.95;0.55;;;10.5;99.9;;;;;;;;;
2021/05/25 00:39:16;;;;;;;1.95;0.55;;;10.5;99.9;;;;;;;;;
2021/05/25 00:39:26;;;;;;;1.02;0.6;;;10.6;99.9;;;;;;;;;
2021/05/25 00:39:42;;;;;;;1.02;0.6;;;10.6;99.9;;;;;;;;;
2021/05/25 00:39:52;;;;;;;1.02;0.6;;;10.6;99.9;;;;;;;;;
2021/05/25 00:40:03;;;;;;;1.02;0.6;;;10.6;99.9;;;;;;;;;
2021/05/25 00:40:13;;;;;;;1.02;0.6;;;10.6;99.9;;;;;;;;;
2021/05/25 00:40:13;;;;;;;1.02;0.6;;;10.6;99.9;;;;;;;;;
2021/05/25 00:40:28;;;;;;;1.57;0.6;;;10.6;99.9;;;;;;;;;
2021/05/25 00:40:38;;;;;;;1.57;0.6;;;10.6;99.9;;;;;;;;;
2021/05/25 00:40:54;;;;;;;1.57;0.6;;;10.6;99.9;;;;;;;;;
2021/05/25 00:41:01;;;;;;;1.57;0.6;;;10.6;99.9;;;;;;;;;
2021/05/25 00:41:09;;;;;;;1.57;0.6;;;10.6;99.9;;;;;;;;;
2021/05/25 00:41:14;;;;;;;1.57;0.6;;;10.6;99.9;;;;;;;;;
2021/05/25 00:41:29;;;;;;;1.25;0.5;;;10.6;99.9;;;;;;;;;
2021/05/25 00:41:40;;;;;;;1.25;0.5;;;10.6;99.9;;;;;;;;;
2021/05/25 00:41:55;;;;;;;1.25;0.5;;;10.6;99.9;;;;;;;;;
2021/05/25 00:42:02;;;;;;;1.25;0.5;;;10.6;99.9;;;;;;;;;
2021/05/25 00:42:05;;;;;;;1.25;0.5;;;10.6;99.9;;;;;;;;;
2021/05/25 00:42:21;;;;;;;0.9;0.7;;;10.5;99.9;;;;;;;;;
2021/05/25 00:42:31;;;;;;;0.9;0.7;;;10.5;99.9;;;;;;;;;
2021/05/25 00:42:41;;;;;;;0.9;0.7;;;10.5;99.9;;;;;;;;;
2021/05/25 00:42:51;;;;;;;0.9;0.7;;;10.5;99.9;;;;;;;;;
2021/05/25 00:43:01;;;;;;;0.9;0.7;;;10.5;99.9;;;;;;;;;
2021/05/25 00:43:07;;;;;;;0.9;0.7;;;10.5;99.9;;;;;;;;;
2021/05/25 00:43:12;;;;;;;0.9;0.7;;;10.5;99.9;;;;;;;;;
2021/05/25 00:43:28;;;;;;;0.88;0.45;;;10.4;99.9;;;;;;;;;
2021/05/25 00:43:43;;;;;;;0.88;0.45;;;10.4;99.9;;;;;;;;;
2021/05/25 00:43:54;;;;;;;0.88;0.45;;;10.4;99.9;;;;;;;;;
2021/05/25 00:44:02;;;;;;;0.88;0.45;;;10.4;99.9;;;;;;;;;
2021/05/25 00:44:09;;;;;;;0.88;0.45;;;10.4;99.9;;;;;;;;;
2021/05/25 00:44:13;;;;;;;0.88;0.45;;;10.4;99.9;;;;;;;;;
2021/05/25 00:44:34;;;;;;;1.45;0.75;;;10.4;99.9;;;;;;;;;
2021/05/25 00:44:44;;;;;;;1.45;0.75;;;10.4;99.9;;;;;;;;;
2021/05/25 00:44:54;;;;;;;1.45;0.75;;;10.4;99.9;;;;;;;;;
2021/05/25 00:45:02;;;;;;;1.45;0.75;;;10.4;99.9;;;;;;;;;
2021/05/25 00:45:04;;;;;;;1.45;0.75;;;10.4;99.9;;;;;;;;;
2021/05/25 00:45:15;;;;;;;1.45;0.75;;;10.4;99.9;;;;;;;;;
2021/05/25 00:45:25;;;;;;;1.5;0.87;;;10.4;99.9;;;;;;;;;
2021/05/25 00:45:40;;;;;;;1.5;0.87;;;10.4;99.9;;;;;;;;;
2021/05/25 00:45:56;;;;;;;1.5;0.87;;;10.4;99.9;;;;;;;;;
2021/05/25 00:46:01;;;;;;;1.5;0.87;;;10.4;99.9;;;;;;;;;
2021/05/25 00:46:06;;;;;;;1.5;0.87;;;10.4;99.9;;;;;;;;;
2021/05/25 00:46:16;;;;;;;1.5;0.87;;;10.4;99.9;;;;;;;;;
2021/05/25 00:46:26;;;;;;;1;0.52;;;10.5;99.9;;;;;;;;;
2021/05/25 00:46:47;;;;;;;1;0.52;;;10.5;99.9;;;;;;;;;
2021/05/25 00:46:57;;;;;;;1;0.52;;;10.5;99.9;;;;;;;;;
2021/05/25 00:47:02;;;;;;;1;0.52;;;10.5;99.9;;;;;;;;;
2021/05/25 00:47:07;;;;;;;1;0.52;;;10.5;99.9;;;;;;;;;
2021/05/25 00:47:18;;;;;;;1;0.52;;;10.5;99.9;;;;;;;;;
2021/05/25 00:47:28;;;;;;;1.9;0.6;;;10.4;99.9;;;;;;;;;
2021/05/25 00:47:38;;;;;;;1.9;0.6;;;10.4;99.9;;;;;;;;;
2021/05/25 00:47:53;;;;;;;1.9;0.6;;;10.4;99.9;;;;;;;;;
2021/05/25 00:48:02;;;;;;;1.9;0.6;;;10.4;99.9;;;;;;;;;
2021/05/25 00:48:09;;;;;;;1.9;0.6;;;10.4;99.9;;;;;;;;;
2021/05/25 00:48:14;;;;;;;1.9;0.6;;;10.4;99.9;;;;;;;;;
2021/05/25 00:48:29;;;;;;;0.5;0.4;;;10.5;99.9;;;;;;;;;
2021/05/25 00:48:39;;;;;;;0.5;0.4;;;10.5;99.9;;;;;;;;;
2021/05/25 00:49:00;;;;;;;0.5;0.4;;;10.5;99.9;;;;;;;;;
2021/05/25 00:49:02;;;;;;;0.5;0.4;;;10.5;99.9;;;;;;;;;
2021/05/25 00:49:10;;;;;;;0.5;0.4;;;10.5;99.9;;;;;;;;;
2021/05/25 00:49:15;;;;;;;0.5;0.4;;;10.5;99.9;;;;;;;;;
2021/05/25 00:49:36;;;;;;;0.4;0.3;;;10.5;99.9;;;;;;;;;
2021/05/25 00:49:41;;;;;;;0.4;0.3;;;10.5;99.9;;;;;;;;;
2021/05/25 00:49:51;;;;;;;0.4;0.3;;;10.5;99.9;;;;;;;;;
2021/05/25 00:50:10;;;;;;;0.4;0.3;;;10.5;99.9;;;;;;;;;
2021/05/25 00:50:10;;;;;;;0.4;0.3;;;10.5;99.9;;;;;;;;;
2021/05/25 00:50:17;;;;;;;0.4;0.3;;;10.5;99.9;;;;;;;;;
2021/05/25 00:50:27;;;;;;;0.4;0.32;;;10.5;99.9;;;;;;;;;
2021/05/25 00:50:42;;;;;;;0.4;0.32;;;10.5;99.9;;;;;;;;;
2021/05/25 00:50:53;;;;;;;0.4;0.32;;;10.5;99.9;;;;;;;;;
2021/05/25 00:51:02;;;;;;;0.4;0.32;;;10.5;99.9;;;;;;;;;
2021/05/25 00:51:13;;;;;;;0.4;0.32;;;10.5;99.9;;;;;;;;;
2021/05/25 00:51:13;;;;;;;0.4;0.32;;;10.5;99.9;;;;;;;;;
2021/05/25 00:51:28;;;;;;;0.7;0.4;;;10.4;99.9;;;;;;;;;
2021/05/25 00:51:49;;;;;;;0.7;0.4;;;10.4;99.9;;;;;;;;;
2021/05/25 00:51:54;;;;;;;0.7;0.4;;;10.4;99.9;;;;;;;;;
2021/05/25 00:52:02;;;;;;;0.7;0.4;;;10.4;99.9;;;;;;;;;
2021/05/25 00:52:06;;;;;;;0.7;0.4;;;10.4;99.9;;;;;;;;;
2021/05/25 00:52:25;;;;;;;0.75;0.43;;;10.4;99.9;;;;;;;;;
2021/05/25 00:52:30;;;;;;;0.75;0.43;;;10.4;99.9;;;;;;;;;
2021/05/25 00:52:40;;;;;;;0.75;0.43;;;10.4;99.9;;;;;;;;;
2021/05/25 00:52:56;;;;;;;0.75;0.43;;;10.4;99.9;;;;;;;;;
2021/05/25 00:53:01;;;;;;;0.75;0.43;;;10.4;99.9;;;;;;;;;
2021/05/25 00:53:06;;;;;;;0.75;0.43;;;10.4;99.9;;;;;;;;;
2021/05/25 00:53:16;;;;;;;0.75;0.43;;;10.4;99.9;;;;;;;;;
2021/05/25 00:53:27;;;;;;;2.5;0.5;;;10.5;99.9;;;;;;;;;
2021/05/25 00:53:42;;;;;;;2.5;0.5;;;10.5;99.9;;;;;;;;;
2021/05/25 00:54:02;;;;;;;2.5;0.5;;;10.5;99.9;;;;;;;;;
2021/05/25 00:54:02;;;;;;;2.5;0.5;;;10.5;99.9;;;;;;;;;
2021/05/25 00:54:07;;;;;;;2.5;0.5;;;10.5;99.9;;;;;;;;;
2021/05/25 00:54:17;;;;;;;2.5;0.5;;;10.5;99.9;;;;;;;;;
2021/05/25 00:54:38;;;;;;;0.88;0.4;;;10.5;99.9;;;;;;;;;
2021/05/25 00:54:43;;;;;;;0.88;0.4;;;10.5;99.9;;;;;;;;;
2021/05/25 00:54:53;;;;;;;0.88;0.4;;;10.5;99.9;;;;;;;;;
2021/05/25 00:55:02;;;;;;;0.88;0.4;;;10.5;99.9;;;;;;;;;
2021/05/25 00:55:09;;;;;;;0.88;0.4;;;10.5;99.9;;;;;;;;;
2021/05/25 00:55:14;;;;;;;0.88;0.4;;;10.5;99.9;;;;;;;;;
2021/05/25 00:55:29;;;;;;;0.6;0.4;;;10.4;99.9;;;;;;;;;
2021/05/25 00:55:39;;;;;;;0.6;0.4;;;10.4;99.9;;;;;;;;;
2021/05/25 00:55:55;;;;;;;0.6;0.4;;;10.4;99.9;;;;;;;;;
2021/05/25 00:56:02;;;;;;;0.6;0.4;;;10.4;99.9;;;;;;;;;
2021/05/25 00:56:15;;;;;;;0.6;0.4;;;10.4;99.9;;;;;;;;;
2021/05/25 00:56:15;;;;;;;0.6;0.4;;;10.4;99.9;;;;;;;;;
2021/05/25 00:56:31;;;;;;;0.57;0.45;;;10.3;99.9;;;;;;;;;
2021/05/25 00:56:51;;;;;;;0.57;0.45;;;10.3;99.9;;;;;;;;;
2021/05/25 00:56:57;;;;;;;0.57;0.45;;;10.3;99.9;;;;;;;;;
2021/05/25 00:57:02;;;;;;;0.57;0.45;;;10.3;99.9;;;;;;;;;
2021/05/25 00:57:06;;;;;;;0.57;0.45;;;10.3;99.9;;;;;;;;;
2021/05/25 00:57:17;;;;;;;0.57;0.45;;;10.3;99.9;;;;;;;;;
2021/05/25 00:57:27;;;;;;;0.52;0.4;;;10.3;99.9;;;;;;;;;
2021/05/25 00:57:42;;;;;;;0.52;0.4;;;10.3;99.9;;;;;;;;;
2021/05/25 00:57:52;;;;;;;0.52;0.4;;;10.3;99.9;;;;;;;;;
2021/05/25 00:58:02;;;;;;;0.52;0.4;;;10.3;99.9;;;;;;;;;
2021/05/25 00:58:08;;;;;;;0.52;0.4;;;10.3;99.9;;;;;;;;;
2021/05/25 00:58:13;;;;;;;0.52;0.4;;;10.3;99.9;;;;;;;;;
2021/05/25 00:58:29;;;;;;;1.45;0.4;;;10.3;99.9;;;;;;;;;
2021/05/25 00:58:44;;;;;;;1.45;0.4;;;10.3;99.9;;;;;;;;;
2021/05/25 00:59:02;;;;;;;1.45;0.4;;;10.3;99.9;;;;;;;;;
2021/05/25 00:59:04;;;;;;;1.45;0.4;;;10.3;99.9;;;;;;;;;
2021/05/25 00:59:09;;;;;;;1.45;0.4;;;10.3;99.9;;;;;;;;;
2021/05/25 00:59:14;;;;;;;1.45;0.4;;;10.3;99.9;;;;;;;;;
2021/05/25 00:59:30;;;;;;;2.38;0.6;;;10.4;99.9;;;;;;;;;
2021/05/25 00:59:40;;;;;;;2.38;0.6;;;10.4;99.9;;;;;;;;;
2021/05/25 00:59:55;;;;;;;2.38;0.6;;;10.4;99.9;;;;;;;;;
2021/05/25 01:00:02;;;;;;;2.38;0.6;;;10.4;99.9;;;;;;;;;
2021/05/25 01:00:06;;;;;;;2.38;0.6;;;10.4;99.9;;;;;;;;;
2021/05/25 01:00:16;;;;;;;2.38;0.6;;;10.4;99.9;;;;;;;;;
2021/05/25 01:00:26;;;;;;;1.73;0.47;;;10.2;99.9;;;;;;;;;
2021/05/25 01:00:41;;;;;;;1.73;0.47;;;10.2;99.9;;;;;;;;;
2021/05/25 01:00:57;;;;;;;1.73;0.47;;;10.2;99.9;;;;;;;;;
2021/05/25 01:01:02;;;;;;;1.73;0.47;;;10.2;99.9;;;;;;;;;
2021/05/25 01:01:12;;;;;;;1.73;0.47;;;10.2;99.9;;;;;;;;;
2021/05/25 01:01:17;;;;;;;1.73;0.47;;;10.2;99.9;;;;;;;;;
2021/05/25 01:01:28;;;;;;;1.58;0.6;;;10.3;99.9;;;;;;;;;
2021/05/25 01:01:43;;;;;;;1.58;0.6;;;10.3;99.9;;;;;;;;;
2021/05/25 01:01:53;;;;;;;1.58;0.6;;;10.3;99.9;;;;;;;;;
2021/05/25 01:02:02;;;;;;;1.58;0.6;;;10.3;99.9;;;;;;;;;
2021/05/25 01:02:08;;;;;;;1.58;0.6;;;10.3;99.9;;;;;;;;;
2021/05/25 01:02:19;;;;;;;1.58;0.6;;;10.3;99.9;;;;;;;;;
2021/05/25 01:02:29;;;;;;;1.02;0.4;;;10.3;99.9;;;;;;;;;
2021/05/25 01:02:44;;;;;;;1.02;0.4;;;10.3;99.9;;;;;;;;;
2021/05/25 01:02:55;;;;;;;1.02;0.4;;;10.3;99.9;;;;;;;;;
2021/05/25 01:03:01;;;;;;;1.02;0.4;;;10.3;99.9;;;;;;;;;
2021/05/25 01:03:10;;;;;;;1.02;0.4;;;10.3;99.9;;;;;;;;;
2021/05/25 01:03:15;;;;;;;1.02;0.4;;;10.3;99.9;;;;;;;;;
2021/05/25 01:03:25;;;;;;;1.02;0.4;;;10.3;99.9;;;;;;;;;
2021/05/25 01:03:41;;;;;;;0.8;0.5;;;10.3;99.9;;;;;;;;;
2021/05/25 01:03:56;;;;;;;0.8;0.5;;;10.3;99.9;;;;;;;;;
2021/05/25 01:04:02;;;;;;;0.8;0.5;;;10.3;99.9;;;;;;;;;
2021/05/25 01:04:06;;;;;;;0.8;0.5;;;10.3;99.9;;;;;;;;;
2021/05/25 01:04:16;;;;;;;0.8;0.5;;;10.3;99.9;;;;;;;;;
2021/05/25 01:04:32;;;;;;;2.55;0.6;;;10.2;99.9;;;;;;;;;
2021/05/25 01:04:42;;;;;;;2.55;0.6;;;10.2;99.9;;;;;;;;;
2021/05/25 01:04:57;;;;;;;2.55;0.6;;;10.2;99.9;;;;;;;;;
2021/05/25 01:05:02;;;;;;;2.55;0.6;;;10.2;99.9;;;;;;;;;
2021/05/25 01:05:08;;;;;;;2.55;0.6;;;10.2;99.9;;;;;;;;;
2021/05/25 01:05:13;;;;;;;2.55;0.6;;;10.2;99.9;;;;;;;;;
2021/05/25 01:05:28;;;;;;;0.6;0.57;;;10.3;99.9;;;;;;;;;
2021/05/25 01:05:38;;;;;;;0.6;0.57;;;10.3;99.9;;;;;;;;;
2021/05/25 01:05:54;;;;;;;0.6;0.57;;;10.3;99.9;;;;;;;;;
2021/05/25 01:06:02;;;;;;;0.6;0.57;;;10.3;99.9;;;;;;;;;
2021/05/25 01:06:09;;;;;;;0.6;0.57;;;10.3;99.9;;;;;;;;;
2021/05/25 01:06:14;;;;;;;0.6;0.57;;;10.3;99.9;;;;;;;;;
2021/05/25 01:06:30;;;;;;;0.45;0.4;;;10.4;99.9;;;;;;;;;
2021/05/25 01:06:45;;;;;;;0.45;0.4;;;10.4;99.9;;;;;;;;;
2021/05/25 01:06:55;;;;;;;0.45;0.4;;;10.4;99.9;;;;;;;;;
2021/05/25 01:07:02;;;;;;;0.45;0.4;;;10.4;99.9;;;;;;;;;
2021/05/25 01:07:12;;;;;;;0.45;0.4;;;10.4;99.9;;;;;;;;;
2021/05/25 01:07:16;;;;;;;0.45;0.4;;;10.4;99.9;;;;;;;;;
2021/05/25 01:07:26;;;;;;;0.45;0.4;;;10.4;99.9;;;;;;;;;
2021/05/25 01:07:41;;;;;;;0.8;0.5;;;10.4;99.9;;;;;;;;;
2021/05/25 01:07:51;;;;;;;0.8;0.5;;;10.4;99.9;;;;;;;;;
2021/05/25 01:08:01;;;;;;;0.8;0.5;;;10.4;99.9;;;;;;;;;
2021/05/25 01:08:07;;;;;;;0.8;0.5;;;10.4;99.9;;;;;;;;;
2021/05/25 01:08:13;;;;;;;0.8;0.5;;;10.4;99.9;;;;;;;;;
2021/05/25 01:08:27;;;;;;;0.8;0.5;;;10.4;99.9;;;;;;;;;
2021/05/25 01:08:43;;;;;;;1.83;0.5;;;10.3;99.9;;;;;;;;;
2021/05/25 01:09:00;;;;;;;1.83;0.5;;;10.3;99.9;;;;;;;;;
2021/05/25 01:09:02;;;;;;;1.83;0.5;;;10.3;99.9;;;;;;;;;
2021/05/25 01:09:08;;;;;;;1.83;0.5;;;10.3;99.9;;;;;;;;;
2021/05/25 01:09:17;;;;;;;1.83;0.5;;;10.3;99.9;;;;;;;;;
2021/05/25 01:09:32;;;;;;;0.3;0.28;;;10.3;99.9;;;;;;;;;
2021/05/25 01:09:39;;;;;;;0.3;0.28;;;10.3;99.9;;;;;;;;;
2021/05/25 01:09:56;;;;;;;0.3;0.28;;;10.3;99.9;;;;;;;;;
2021/05/25 01:10:01;;;;;;;0.3;0.28;;;10.3;99.9;;;;;;;;;
2021/05/25 01:10:06;;;;;;;0.3;0.28;;;10.3;99.9;;;;;;;;;
2021/05/25 01:10:19;;;;;;;0.3;0.28;;;10.3;99.9;;;;;;;;;
2021/05/25 01:10:27;;;;;;;0.3;0.28;;;10.3;99.9;;;;;;;;;
2021/05/25 01:10:43;;;;;;;1.1;0.6;;;10.4;99.9;;;;;;;;;
2021/05/25 01:11:00;;;;;;;1.1;0.6;;;10.4;99.9;;;;;;;;;
2021/05/25 01:11:03;;;;;;;1.1;0.6;;;10.4;99.9;;;;;;;;;
2021/05/25 01:11:14;;;;;;;1.1;0.6;;;10.4;99.9;;;;;;;;;
2021/05/25 01:11:18;;;;;;;1.1;0.6;;;10.4;99.9;;;;;;;;;
2021/05/25 01:11:27;;;;;;;1.1;0.6;;;10.4;99.9;;;;;;;;;
2021/05/25 01:11:44;;;;;;;1.42;0.5;;;10.4;99.9;;;;;;;;;
2021/05/25 01:11:52;;;;;;;1.42;0.5;;;10.4;99.9;;;;;;;;;
2021/05/25 01:12:04;;;;;;;1.42;0.5;;;10.4;99.9;;;;;;;;;
2021/05/25 01:12:09;;;;;;;1.42;0.5;;;10.4;99.9;;;;;;;;;
2021/05/25 01:12:13;;;;;;;1.42;0.5;;;10.4;99.9;;;;;;;;;
2021/05/25 01:12:35;;;;;;;0.47;0.4;;;10.6;99.9;;;;;;;;;
2021/05/25 01:12:47;;;;;;;0.47;0.4;;;10.6;99.9;;;;;;;;;
2021/05/25 01:13:01;;;;;;;0.47;0.4;;;10.6;99.9;;;;;;;;;
2021/05/25 01:13:05;;;;;;;0.47;0.4;;;10.6;99.9;;;;;;;;;
2021/05/25 01:13:17;;;;;;;0.47;0.4;;;10.6;99.9;;;;;;;;;
2021/05/25 01:13:17;;;;;;;0.47;0.4;;;10.6;99.9;;;;;;;;;
2021/05/25 01:13:34;;;;;;;0.5;0.5;;;10.6;99.9;;;;;;;;;
2021/05/25 01:13:43;;;;;;;0.5;0.5;;;10.6;99.9;;;;;;;;;
2021/05/25 01:13:57;;;;;;;0.5;0.5;;;10.6;99.9;;;;;;;;;
2021/05/25 01:14:03;;;;;;;0.5;0.5;;;10.6;99.9;;;;;;;;;
2021/05/25 01:14:06;;;;;;;0.5;0.5;;;10.6;99.9;;;;;;;;;
2021/05/25 01:14:16;;;;;;;0.5;0.5;;;10.6;99.9;;;;;;;;;
2021/05/25 01:14:26;;;;;;;0.5;0.5;;;10.6;99.9;;;;;;;;;
2021/05/25 01:14:52;;;;;;;1.1;0.4;;;10.6;99.9;;;;;;;;;
2021/05/25 01:15:05;;;;;;;1.1;0.4;;;10.6;99.9;;;;;;;;;
2021/05/25 01:15:05;;;;;;;1.1;0.4;;;10.6;99.9;;;;;;;;;
2021/05/25 01:15:12;;;;;;;1.1;0.4;;;10.6;99.9;;;;;;;;;
2021/05/25 01:15:18;;;;;;;1.1;0.4;;;10.6;99.9;;;;;;;;;
2021/05/25 01:15:27;;;;;;;1.1;0.4;;;10.6;99.9;;;;;;;;;
2021/05/25 01:15:48;;;;;;;2.63;0.73;;;10.6;99.9;;;;;;;;;
2021/05/25 01:15:58;;;;;;;2.63;0.73;;;10.6;99.9;;;;;;;;;
2021/05/25 01:16:02;;;;;;;2.63;0.73;;;10.6;99.9;;;;;;;;;